createdAt,value
2023-04-19T00:02:09.034Z,102852.94
2023-04-19T00:04:39.540Z,102858.66
2023-04-19T00:07:07.878Z,102853.38
2023-04-19T00:09:36.056Z,102859.88
2023-04-19T00:12:04.474Z,102849.41
2023-04-19T00:14:32.772Z,102852.53
2023-04-19T00:17:01.001Z,102848.09
2023-04-19T00:19:29.482Z,102847.47
2023-04-19T00:21:59.122Z,102835.50
2023-04-19T00:24:27.373Z,102828.44
2023-04-19T00:26:55.662Z,102832.13
2023-04-19T00:29:23.971Z,102839.22
2023-04-19T00:31:53.193Z,102836.19
2023-04-19T00:34:21.671Z,102834.63
2023-04-19T00:36:49.820Z,102824.44
2023-04-19T00:39:19.599Z,102827.69
2023-04-19T00:41:47.843Z,102809.47
2023-04-19T00:44:16.242Z,102804.41
2023-04-19T00:46:45.548Z,102816.16
2023-04-19T00:49:14.146Z,102820.56
2023-04-19T00:51:42.606Z,102810.28
2023-04-19T00:54:11.170Z,102818.91
2023-04-19T00:56:41.571Z,102815.66
2023-04-19T00:59:10.854Z,102815.91
2023-04-19T01:01:39.556Z,102811.47
2023-04-19T01:04:11.476Z,102819.16
2023-04-19T01:06:41.576Z,102815.06
2023-04-19T01:09:09.855Z,102822.97
2023-04-19T01:11:38.183Z,102813.47
2023-04-19T01:14:07.759Z,102810.97
2023-04-19T01:16:36.413Z,102814.56
2023-04-19T01:19:04.652Z,102819.84
2023-04-19T01:21:33.257Z,102818.34
2023-04-19T01:24:02.770Z,102827.00
2023-04-19T01:26:31.004Z,102816.69
2023-04-19T01:28:59.216Z,102804.44
2023-04-19T01:31:27.601Z,102820.03
2023-04-19T01:33:56.073Z,102820.72
2023-04-19T01:36:24.323Z,102826.59
2023-04-19T01:38:52.529Z,102819.75
2023-04-19T01:41:23.072Z,102820.50
2023-04-19T01:43:51.249Z,102806.34
2023-04-19T01:46:19.594Z,102811.00
2023-04-19T01:48:47.826Z,102806.56
2023-04-19T01:51:17.498Z,102802.94
2023-04-19T01:53:45.685Z,102810.47
2023-04-19T01:56:13.921Z,102818.22
2023-04-19T01:58:43.808Z,102813.88
2023-04-19T02:01:13.269Z,102804.81
2023-04-19T02:03:42.218Z,102798.91
2023-04-19T02:06:13.020Z,102787.53
2023-04-19T02:08:41.683Z,102791.75
2023-04-19T02:11:10.564Z,102795.72
2023-04-19T02:13:38.916Z,102796.06
2023-04-19T02:16:09.394Z,102796.28
2023-04-19T02:18:38.554Z,102795.56
2023-04-19T02:21:07.730Z,102792.56
2023-04-19T02:23:36.231Z,102783.44
2023-04-19T02:26:04.503Z,102785.03
2023-04-19T02:28:33.394Z,102778.94
2023-04-19T02:31:06.342Z,102772.84
2023-04-19T02:33:36.583Z,102763.13
2023-04-19T02:36:05.132Z,102747.22
2023-04-19T02:38:33.560Z,102753.06
2023-04-19T02:41:04.434Z,102754.13
2023-04-19T02:43:33.001Z,102758.75
2023-04-19T02:46:01.370Z,102754.13
2023-04-19T02:48:29.621Z,102756.88
2023-04-19T02:50:59.758Z,102760.34
2023-04-19T02:53:28.619Z,102759.84
2023-04-19T02:55:56.764Z,102761.19
2023-04-19T02:58:25.053Z,102753.16
2023-04-19T03:00:53.250Z,102753.13
2023-04-19T03:03:21.757Z,102751.00
2023-04-19T03:05:49.939Z,102743.22
2023-04-19T03:08:19.536Z,102733.78
2023-04-19T03:10:47.765Z,102734.13
2023-04-19T03:13:15.951Z,102728.13
2023-04-19T03:15:44.302Z,102721.50
2023-04-19T03:18:12.456Z,102722.84
2023-04-19T03:20:40.727Z,102740.50
2023-04-19T03:23:09.082Z,102733.19
2023-04-19T03:25:38.865Z,102724.69
2023-04-19T03:28:07.000Z,102719.41
2023-04-19T03:30:35.401Z,102713.06
2023-04-19T03:33:03.646Z,102716.16
2023-04-19T03:35:32.628Z,102711.41
2023-04-19T03:38:01.530Z,102720.88
2023-04-19T03:40:29.815Z,102738.47
2023-04-19T03:42:59.523Z,102719.69
2023-04-19T03:45:27.725Z,102729.97
2023-04-19T03:47:55.920Z,102732.22
2023-04-19T03:50:24.465Z,102740.28
2023-04-19T03:52:52.618Z,102745.69
2023-04-19T03:55:20.895Z,102757.53
2023-04-19T03:57:49.052Z,102748.81
2023-04-19T04:00:19.353Z,102737.31
2023-04-19T04:02:47.875Z,102742.47
2023-04-19T04:05:16.864Z,102742.47
2023-04-19T04:07:45.165Z,102734.81
2023-04-19T04:10:16.399Z,102738.88
2023-04-19T04:12:44.569Z,102740.47
2023-04-19T04:15:13.073Z,102736.66
2023-04-19T04:17:42.745Z,102737.69
2023-04-19T04:20:13.606Z,102747.03
2023-04-19T04:22:44.261Z,102732.44
2023-04-19T04:25:16.983Z,102748.63
2023-04-19T04:27:45.304Z,102741.56
2023-04-19T04:30:14.078Z,102735.72
2023-04-19T04:32:45.096Z,102727.72
2023-04-19T04:35:13.326Z,102725.16
2023-04-19T04:37:41.602Z,102724.81
2023-04-19T04:40:16.590Z,102712.00
2023-04-19T04:42:45.648Z,102704.94
2023-04-19T04:45:13.880Z,102709.00
2023-04-19T04:47:43.593Z,102732.41
2023-04-19T04:50:12.735Z,102715.03
2023-04-19T04:52:40.947Z,102734.41
2023-04-19T04:55:12.119Z,102731.78
2023-04-19T04:57:40.402Z,102737.66
2023-04-19T05:00:10.881Z,102743.06
2023-04-19T05:02:39.222Z,102735.25
2023-04-19T05:05:15.610Z,102737.66
2023-04-19T05:07:44.127Z,102737.31
2023-04-19T05:10:12.484Z,102741.28
2023-04-19T05:12:40.775Z,102740.56
2023-04-19T05:15:13.184Z,102745.22
2023-04-19T05:17:43.202Z,102741.00
2023-04-19T05:20:12.784Z,102745.09
2023-04-19T05:22:42.506Z,102743.31
2023-04-19T05:25:12.056Z,102754.91
2023-04-19T05:27:40.219Z,102736.03
2023-04-19T05:30:09.343Z,102747.41
2023-04-19T05:32:37.607Z,102747.41
2023-04-19T05:35:06.265Z,102751.59
2023-04-19T05:37:34.517Z,102744.66
2023-04-19T05:40:05.990Z,102739.84
2023-04-19T05:42:35.270Z,102747.03
2023-04-19T05:45:05.851Z,102753.97
2023-04-19T05:47:35.542Z,102754.16
2023-04-19T05:50:03.941Z,102758.38
2023-04-19T05:52:32.076Z,102757.22
2023-04-19T05:55:00.653Z,102751.81
2023-04-19T05:57:31.906Z,102761.19
2023-04-19T06:02:34.034Z,102751.47
2023-04-19T06:05:09.854Z,102753.06
2023-04-19T06:07:43.180Z,102760.00
2023-04-19T06:10:18.879Z,102732.84
2023-04-19T06:12:48.697Z,102738.09
2023-04-19T06:15:16.856Z,102744.53
2023-04-19T06:17:45.260Z,102733.53
2023-04-19T06:20:14.286Z,102727.63
2023-04-19T06:22:46.990Z,102737.69
2023-04-19T06:25:15.213Z,102732.91
2023-04-19T06:27:43.506Z,102741.50
2023-04-19T06:30:13.944Z,102744.66
2023-04-19T06:32:42.268Z,102741.06
2023-04-19T06:35:11.068Z,102750.16
2023-04-19T06:37:39.490Z,102736.88
2023-04-19T06:40:09.611Z,102741.41
2023-04-19T06:42:37.892Z,102742.13
2023-04-19T06:45:07.265Z,102742.03
2023-04-19T06:47:36.962Z,102741.91
2023-04-19T06:50:06.021Z,102735.81
2023-04-19T06:52:34.287Z,102737.69
2023-04-19T06:55:02.402Z,102731.25
2023-04-19T06:57:34.400Z,102723.28
2023-04-19T07:00:02.747Z,102726.84
2023-04-19T07:02:31.097Z,102728.91
2023-04-19T07:05:01.093Z,102720.78
2023-04-19T07:07:29.967Z,102721.38
2023-04-19T07:09:58.064Z,102724.00
2023-04-19T07:12:26.293Z,102723.91
2023-04-19T07:14:57.371Z,102730.34
2023-04-19T07:17:25.817Z,102733.72
2023-04-19T07:19:54.052Z,102735.91
2023-04-19T07:22:23.789Z,102741.03
2023-04-19T07:24:52.361Z,102734.19
2023-04-19T07:27:20.634Z,102741.59
2023-04-19T07:29:48.914Z,102744.38
2023-04-19T07:32:17.121Z,102735.84
2023-04-19T07:34:46.322Z,102737.50
2023-04-19T07:37:14.678Z,102742.91
2023-04-19T07:39:44.676Z,102727.72
2023-04-19T07:42:12.798Z,102728.00
2023-04-19T07:44:41.066Z,102741.38
2023-04-19T07:47:09.228Z,102724.16
2023-04-19T07:49:37.915Z,102749.22
2023-04-19T07:52:08.958Z,102734.34
2023-04-19T07:54:39.287Z,102735.78
2023-04-19T07:57:09.098Z,102731.16
2023-04-19T07:59:37.275Z,102734.25
2023-04-19T08:02:05.805Z,102738.25
2023-04-19T08:04:34.796Z,102727.81
2023-04-19T08:07:04.303Z,102737.66
2023-04-19T08:09:34.623Z,102717.28
2023-04-19T08:12:02.721Z,102730.00
2023-04-19T08:14:43.835Z,102734.56
2023-04-19T08:19:49.534Z,102740.22
2023-04-19T08:22:18.328Z,102741.91
2023-04-19T08:24:46.551Z,102739.84
2023-04-19T08:27:14.808Z,102750.63
2023-04-19T08:29:44.522Z,102740.31
2023-04-19T08:32:12.988Z,102734.91
2023-04-19T08:34:41.498Z,102761.06
2023-04-19T08:37:09.563Z,102754.81
2023-04-19T08:39:39.035Z,102750.03
2023-04-19T08:42:18.241Z,102742.97
2023-04-19T08:45:25.411Z,102739.41
2023-04-19T08:47:59.988Z,102728.38
2023-04-19T08:53:15.720Z,102731.59
2023-04-19T08:56:08.572Z,102740.69
2023-04-19T08:58:57.722Z,102734.84
2023-04-19T09:01:34.896Z,102729.69
2023-04-19T09:04:26.446Z,102744.66
2023-04-19T09:06:54.201Z,102746.59
2023-04-19T09:09:35.433Z,102743.59
2023-04-19T09:12:18.156Z,102739.03
2023-04-19T09:17:21.117Z,102740.81
2023-04-19T09:19:50.543Z,102743.47
2023-04-19T09:22:18.958Z,102748.13
2023-04-19T09:27:27.705Z,102732.22
2023-04-19T09:29:56.450Z,102736.75
2023-04-19T09:32:27.226Z,102732.22
2023-04-19T09:34:59.826Z,102730.28
2023-04-19T09:39:59.905Z,102738.31
2023-04-19T09:43:06.930Z,102731.22
2023-04-19T09:45:44.141Z,102743.47
2023-04-19T09:48:14.688Z,102723.22
2023-04-19T09:50:58.975Z,102734.13
2023-04-19T09:53:30.578Z,102733.97
2023-04-19T09:56:02.120Z,102736.38
2023-04-19T10:01:14.092Z,102726.69
2023-04-19T10:03:47.126Z,102737.72
2023-04-19T10:08:51.702Z,102741.19
2023-04-19T10:11:23.004Z,102743.34
2023-04-19T10:13:55.043Z,102734.94
2023-04-19T10:16:23.172Z,102739.50
2023-04-19T10:18:54.204Z,102738.44
2023-04-19T10:21:23.308Z,102737.47
2023-04-19T10:23:51.981Z,102736.28
2023-04-19T10:26:20.178Z,102751.88
2023-04-19T10:28:51.654Z,102742.03
2023-04-19T10:31:23.851Z,102748.97
2023-04-19T10:33:53.932Z,102748.38
2023-04-19T10:36:23.526Z,102736.28
2023-04-19T10:38:53.732Z,102735.19
2023-04-19T10:41:22.952Z,102737.81
2023-04-19T10:44:13.049Z,102723.91
2023-04-19T10:46:41.980Z,102731.72
2023-04-19T10:49:13.605Z,102733.25
2023-04-19T10:51:44.435Z,102732.91
2023-04-19T10:54:31.660Z,102725.09
2023-04-19T10:57:05.233Z,102726.19
2023-04-19T10:59:35.399Z,102719.81
2023-04-19T11:02:05.390Z,102712.50
2023-04-19T11:05:04.323Z,102722.22
2023-04-19T11:07:43.090Z,102720.78
2023-04-19T11:10:12.764Z,102714.53
2023-04-19T11:12:45.228Z,102721.72
2023-04-19T11:15:13.510Z,102730.09
2023-04-19T11:17:42.830Z,102731.19
2023-04-19T11:20:14.753Z,102719.66
2023-04-19T11:22:46.450Z,102724.72
2023-04-19T11:25:18.299Z,102723.22
2023-04-19T11:27:48.295Z,102722.41
2023-04-19T11:30:19.761Z,102729.56
2023-04-19T11:32:49.122Z,102719.84
2023-04-19T11:35:21.057Z,102725.03
2023-04-19T11:37:49.244Z,102724.63
2023-04-19T11:40:18.831Z,102725.94
2023-04-19T11:42:47.418Z,102718.72
2023-04-19T11:45:31.232Z,102717.75
2023-04-19T11:48:01.934Z,102726.25
2023-04-19T11:50:36.299Z,102715.00
2023-04-19T11:53:26.730Z,102720.66
2023-04-19T11:55:57.601Z,102718.72
2023-04-19T11:58:29.627Z,102732.38
2023-04-19T12:01:00.401Z,102720.47
2023-04-19T12:03:28.716Z,102724.66
2023-04-19T12:06:03.619Z,102713.59
2023-04-19T12:08:33.688Z,102715.78
2023-04-19T12:11:03.610Z,102714.53
2023-04-19T12:13:32.545Z,102722.59
2023-04-19T12:16:01.761Z,102716.97
2023-04-19T12:18:43.366Z,102712.75
2023-04-19T12:21:14.162Z,102712.69
2023-04-19T12:23:42.381Z,102700.06
2023-04-19T12:26:11.694Z,102690.78
2023-04-19T12:28:40.023Z,102694.75
2023-04-19T12:31:08.163Z,102692.47
2023-04-19T12:33:36.629Z,102690.44
2023-04-19T12:36:05.091Z,102688.25
2023-04-19T12:38:34.666Z,102687.81
2023-04-19T12:41:03.118Z,102672.16
2023-04-19T12:43:32.082Z,102690.59
2023-04-19T12:46:00.594Z,102689.16
2023-04-19T12:48:32.582Z,102687.50
2023-04-19T12:51:01.340Z,102692.25
2023-04-19T12:53:29.975Z,102687.41
2023-04-19T12:56:00.137Z,102678.66
2023-04-19T12:58:28.420Z,102681.78
2023-04-19T13:00:56.615Z,102680.47
2023-04-19T13:03:25.060Z,102681.22
2023-04-19T13:05:53.427Z,102696.16
2023-04-19T13:08:33.824Z,102682.59
2023-04-19T13:11:11.010Z,102671.09
2023-04-19T13:13:39.177Z,102675.19
2023-04-19T13:16:08.275Z,102666.47
2023-04-19T13:18:36.702Z,102661.59
2023-04-19T13:21:07.325Z,102674.00
2023-04-19T13:23:36.302Z,102678.09
2023-04-19T13:26:04.698Z,102674.22
2023-04-19T13:28:36.822Z,102697.78
2023-04-19T13:31:06.004Z,102682.88
2023-04-19T13:33:34.379Z,102691.63
2023-04-19T13:36:02.599Z,102688.00
2023-04-19T13:38:30.940Z,102692.75
2023-04-19T13:40:59.094Z,102681.28
2023-04-19T13:43:27.229Z,102687.13
2023-04-19T13:45:56.888Z,102681.66
2023-04-19T13:48:27.515Z,102672.81
2023-04-19T13:50:56.172Z,102677.84
2023-04-19T13:53:25.313Z,102671.13
2023-04-19T13:55:53.573Z,102661.91
2023-04-19T13:58:21.856Z,102653.94
2023-04-19T14:00:50.030Z,102652.38
2023-04-19T14:03:19.699Z,102651.25
2023-04-19T14:05:47.993Z,102648.47
2023-04-19T14:08:16.507Z,102645.16
2023-04-19T14:10:44.711Z,102647.94
2023-04-19T14:13:12.937Z,102637.06
2023-04-19T14:15:42.106Z,102643.88
2023-04-19T14:18:12.537Z,102644.28
2023-04-19T14:20:42.312Z,102641.06
2023-04-19T14:23:10.448Z,102639.22
2023-04-19T14:25:38.665Z,102636.41
2023-04-19T14:28:06.969Z,102635.28
2023-04-19T14:30:35.320Z,102622.47
2023-04-19T14:33:03.500Z,102625.00
2023-04-19T14:35:31.830Z,102628.47
2023-04-19T14:38:01.484Z,102620.22
2023-04-19T14:40:30.139Z,102623.00
2023-04-19T14:42:58.364Z,102624.56
2023-04-19T14:45:27.715Z,102614.41
2023-04-19T14:47:56.280Z,102618.56
2023-04-19T14:50:24.828Z,102616.31
2023-04-19T14:52:54.809Z,102613.81
2023-04-19T14:55:25.077Z,102607.69
2023-04-19T14:57:53.389Z,102611.75
2023-04-19T15:00:21.985Z,102603.53
2023-04-19T15:02:50.337Z,102612.88
2023-04-19T15:05:19.158Z,102609.97
2023-04-19T15:07:47.423Z,102604.44
2023-04-19T15:10:15.746Z,102608.34
2023-04-19T15:12:45.354Z,102608.19
2023-04-19T15:15:13.618Z,102604.44
2023-04-19T15:17:42.021Z,102602.50
2023-04-19T15:20:11.376Z,102601.69
2023-04-19T15:22:39.582Z,102598.34
2023-04-19T15:25:08.600Z,102603.50
2023-04-19T15:27:36.926Z,102598.22
2023-04-19T15:30:07.674Z,102603.34
2023-04-19T15:32:38.712Z,102597.22
2023-04-19T15:35:07.617Z,102607.53
2023-04-19T15:37:35.899Z,102600.44
2023-04-19T15:40:04.396Z,102602.34
2023-04-19T15:42:32.465Z,102597.22
2023-04-19T15:45:00.680Z,102602.50
2023-04-19T15:47:31.049Z,102600.28
2023-04-19T15:49:59.266Z,102587.88
2023-04-19T15:52:27.438Z,102601.41
2023-04-19T15:54:55.670Z,102586.09
2023-04-19T15:57:23.876Z,102584.97
2023-04-19T15:59:52.439Z,102579.97
2023-04-19T16:02:21.024Z,102579.69
2023-04-19T16:04:51.777Z,102586.91
2023-04-19T16:07:20.140Z,102586.06
2023-04-19T16:09:48.289Z,102583.41
2023-04-19T16:12:16.471Z,102578.00
2023-04-19T16:14:44.637Z,102583.56
2023-04-19T16:17:12.805Z,102580.66
2023-04-19T16:19:40.880Z,102576.88
2023-04-19T16:22:10.791Z,102573.97
2023-04-19T16:24:38.946Z,102569.78
2023-04-19T16:27:07.114Z,102577.47
2023-04-19T16:29:35.607Z,102575.91
2023-04-19T16:32:04.202Z,102577.72
2023-04-19T16:34:32.457Z,102570.34
2023-04-19T16:37:01.014Z,102569.91
2023-04-19T16:39:30.723Z,102567.28
2023-04-19T16:41:58.905Z,102567.84
2023-04-19T16:44:27.098Z,102562.81
2023-04-19T16:46:55.407Z,102556.84
2023-04-19T16:49:23.639Z,102559.75
2023-04-19T16:51:51.701Z,102558.34
2023-04-19T16:54:20.024Z,102558.34
2023-04-19T16:56:51.843Z,102560.41
2023-04-19T16:59:20.029Z,102559.00
2023-04-19T17:01:48.276Z,102556.25
2023-04-19T17:04:16.625Z,102559.72
2023-04-19T17:06:45.844Z,102566.00
2023-04-19T17:09:14.140Z,102564.44
2023-04-19T17:11:42.385Z,102553.16
2023-04-19T17:14:12.107Z,102553.16
2023-04-19T17:16:41.093Z,102559.00
2023-04-19T17:19:09.370Z,102559.97
2023-04-19T17:21:37.745Z,102559.00
2023-04-19T17:24:10.644Z,102553.16
2023-04-19T17:26:39.049Z,102551.34
2023-04-19T17:29:07.317Z,102551.19
2023-04-19T17:31:37.086Z,102537.00
2023-04-19T17:34:05.462Z,102535.63
2023-04-19T17:36:33.960Z,102530.78
2023-04-19T17:39:02.266Z,102524.22
2023-04-19T17:41:30.552Z,102527.84
2023-04-19T17:43:58.655Z,102525.06
2023-04-19T17:46:26.863Z,102505.44
2023-04-19T17:48:56.960Z,102512.56
2023-04-19T17:51:25.338Z,102510.88
2023-04-19T17:53:53.559Z,102515.59
2023-04-19T17:56:21.778Z,102497.25
2023-04-19T17:58:49.890Z,102502.25
2023-04-19T18:01:18.208Z,102496.84
2023-04-19T18:03:46.573Z,102498.09
2023-04-19T18:06:16.750Z,102493.78
2023-04-19T18:08:46.087Z,102485.97
2023-04-19T18:11:15.197Z,102485.41
2023-04-19T18:13:43.414Z,102496.69
2023-04-19T18:16:11.843Z,102487.50
2023-04-19T18:18:40.785Z,102484.03
2023-04-19T18:21:09.861Z,102491.97
2023-04-19T18:23:39.470Z,102482.91
2023-04-19T18:26:07.843Z,102487.22
2023-04-19T18:28:37.532Z,102483.88
2023-04-19T18:31:06.944Z,102483.63
2023-04-19T18:33:35.565Z,102482.22
2023-04-19T18:36:03.761Z,102486.38
2023-04-19T18:38:32.117Z,102485.69
2023-04-19T18:41:01.716Z,102488.34
2023-04-19T18:43:30.927Z,102484.13
2023-04-19T18:46:00.333Z,102484.13
2023-04-19T18:48:29.549Z,102491.09
2023-04-19T18:50:59.625Z,102485.81
2023-04-19T18:53:29.659Z,102486.78
2023-04-19T18:55:58.679Z,102487.75
2023-04-19T18:58:29.579Z,102482.63
2023-04-19T19:00:58.253Z,102491.97
2023-04-19T19:05:58.651Z,102498.34
2023-04-19T19:08:27.298Z,102501.66
2023-04-19T19:13:28.163Z,102507.25
2023-04-19T19:15:56.557Z,102511.56
2023-04-19T19:18:25.083Z,102516.16
2023-04-19T19:20:53.764Z,102518.09
2023-04-19T19:23:35.504Z,102514.88
2023-04-19T19:26:07.159Z,102523.91
2023-04-19T19:28:36.840Z,102517.91
2023-04-19T19:31:05.156Z,102539.19
2023-04-19T19:33:33.591Z,102524.56
2023-04-19T19:36:01.755Z,102525.28
2023-04-19T19:38:31.737Z,102545.59
2023-04-19T19:41:37.040Z,102545.59
2023-04-19T19:43:49.369Z,102538.63
2023-04-19T19:46:17.685Z,102543.38
2023-04-19T19:48:51.971Z,102537.50
2023-04-19T19:51:52.090Z,102540.16
2023-04-19T19:54:10.147Z,102540.16
2023-04-19T19:56:49.614Z,102549.75
2023-04-19T19:59:29.904Z,102551.69
2023-04-19T20:02:02.122Z,102556.16
2023-04-19T20:04:31.177Z,102548.47
2023-04-19T20:09:30.683Z,102550.13
2023-04-19T20:11:59.928Z,102542.47
2023-04-19T20:14:29.967Z,102553.31
2023-04-19T20:17:01.100Z,102545.66
2023-04-19T20:19:29.586Z,102552.75
2023-04-19T20:21:59.116Z,102558.03
2023-04-19T20:24:27.333Z,102550.34
2023-04-19T20:26:55.513Z,102559.13
2023-04-19T20:29:23.809Z,102562.19
2023-04-19T20:31:53.490Z,102555.47
2023-04-19T20:34:21.827Z,102561.59
2023-04-19T20:36:50.334Z,102552.13
2023-04-19T20:39:19.350Z,102558.47
2023-04-19T20:41:48.714Z,102560.28
2023-04-19T20:44:18.418Z,102549.63
2023-04-19T20:46:47.308Z,102544.56
2023-04-19T20:49:17.283Z,102566.53
2023-04-19T20:51:46.684Z,102557.91
2023-04-19T20:54:14.793Z,102562.47
2023-04-19T20:56:43.025Z,102551.91
2023-04-19T20:59:11.240Z,102551.22
2023-04-19T21:01:39.408Z,102559.28
2023-04-19T21:04:08.796Z,102569.09
2023-04-19T21:06:38.690Z,102564.41
2023-04-19T21:09:06.889Z,102571.50
2023-04-19T21:11:35.182Z,102569.25
2023-04-19T21:14:03.425Z,102562.84
2023-04-19T21:16:31.920Z,102570.91
2023-04-19T21:19:01.005Z,102562.84
2023-04-19T21:21:30.508Z,102557.03
2023-04-19T21:24:01.361Z,102562.41
2023-04-19T21:26:29.681Z,102561.47
2023-04-19T21:28:57.949Z,102567.69
2023-04-19T21:31:26.151Z,102563.28
2023-04-19T21:33:54.428Z,102568.56
2023-04-19T21:36:22.661Z,102559.06
2023-04-19T21:38:50.939Z,102562.56
2023-04-19T21:41:20.761Z,102567.78
2023-04-19T21:43:49.030Z,102566.69
2023-04-19T21:46:17.219Z,102564.06
2023-04-19T21:48:45.441Z,102563.47
2023-04-19T21:51:14.525Z,102567.19
2023-04-19T21:53:42.689Z,102575.25
2023-04-19T21:56:10.879Z,102578.03
2023-04-19T21:58:40.683Z,102570.22
2023-04-19T22:01:08.868Z,102568.31
2023-04-19T22:03:37.596Z,102567.47
2023-04-19T22:06:06.860Z,102572.03
2023-04-19T22:08:35.611Z,102572.03
2023-04-19T22:11:03.842Z,102581.88
2023-04-19T22:13:33.569Z,102580.78
2023-04-19T22:16:03.356Z,102586.44
2023-04-19T22:18:34.271Z,102574.94
2023-04-19T22:21:02.499Z,102591.25
2023-04-19T22:23:30.813Z,102595.56
2023-04-19T22:26:00.225Z,102592.25
2023-04-19T22:28:28.472Z,102595.84
2023-04-19T22:30:56.745Z,102584.56
2023-04-19T22:33:26.366Z,102588.16
2023-04-19T22:35:54.873Z,102587.94
2023-04-19T22:38:23.137Z,102598.03
2023-04-19T22:40:51.402Z,102594.66
2023-04-19T22:43:19.664Z,102597.31
2023-04-19T22:45:48.232Z,102600.31
2023-04-19T22:48:17.062Z,102588.94
2023-04-19T22:50:48.143Z,102592.22
2023-04-19T22:53:16.321Z,102593.53
2023-04-19T22:55:44.449Z,102588.25
2023-04-19T22:58:12.642Z,102593.69
2023-04-19T23:00:41.015Z,102600.75
2023-04-19T23:03:09.369Z,102590.56
2023-04-19T23:05:37.540Z,102589.59
2023-04-19T23:08:07.547Z,102597.66
2023-04-19T23:10:38.160Z,102602.19
2023-04-19T23:13:06.943Z,102612.28
2023-04-19T23:15:35.313Z,102604.50
2023-04-19T23:18:04.060Z,102614.22
2023-04-19T23:20:32.229Z,102616.03
2023-04-19T23:23:00.692Z,102625.28
2023-04-19T23:25:30.386Z,102625.28
2023-04-19T23:27:58.683Z,102629.47
2023-04-19T23:30:27.049Z,102627.06
2023-04-19T23:32:55.511Z,102625.28
2023-04-19T23:35:24.039Z,102624.56
2023-04-19T23:37:52.586Z,102624.09
2023-04-19T23:40:22.193Z,102618.09
2023-04-19T23:42:51.804Z,102609.22
2023-04-19T23:45:19.993Z,102593.19
2023-04-19T23:47:48.191Z,102585.63
2023-04-19T23:50:16.540Z,102582.91
2023-04-19T23:52:44.865Z,102579.81
2023-04-19T23:55:13.165Z,102570.22
2023-04-19T23:57:41.767Z,102576.47
